createdAt,value
2023-05-07T00:05:14.962Z,6.4
2023-05-07T00:11:07.320Z,6.2
2023-05-07T00:16:59.835Z,6
2023-05-07T00:22:52.162Z,5.6
2023-05-07T00:28:43.419Z,6.5
2023-05-07T00:34:35.039Z,7
2023-05-07T00:40:27.130Z,6.7
2023-05-07T00:46:19.302Z,5.9
2023-05-07T00:52:11.532Z,7.3
2023-05-07T00:58:03.822Z,7.6
2023-05-07T01:03:57.767Z,10.1
2023-05-07T01:09:50.215Z,6.7
2023-05-07T01:15:41.922Z,6.2
2023-05-07T01:21:35.141Z,6.4
2023-05-07T01:27:27.237Z,6.1
2023-05-07T01:33:18.929Z,6.1
2023-05-07T01:39:11.627Z,5.9
2023-05-07T01:45:03.261Z,7.2
2023-05-07T01:50:55.795Z,7.3
2023-05-07T01:56:47.332Z,9.5
2023-05-07T02:02:40.156Z,12.3
2023-05-07T02:08:32.094Z,12.7
2023-05-07T02:14:23.829Z,14.1
2023-05-07T02:20:17.363Z,9.8
2023-05-07T02:26:07.641Z,14.5
2023-05-07T02:31:56.892Z,14.9
2023-05-07T02:37:49.432Z,13.4
2023-05-07T02:43:41.429Z,13.1
2023-05-07T02:49:33.566Z,9.7
2023-05-07T02:55:25.494Z,9.3
2023-05-07T03:01:18.015Z,10.9
2023-05-07T03:07:09.498Z,11.8
2023-05-07T03:13:02.636Z,11.4
2023-05-07T03:18:55.019Z,9.9
2023-05-07T03:24:46.413Z,9.7
2023-05-07T03:30:37.976Z,9.3
2023-05-07T03:36:31.495Z,9.7
2023-05-07T03:42:24.736Z,8.6
2023-05-07T03:48:17.724Z,9.5
2023-05-07T03:54:09.020Z,10.2
2023-05-07T04:00:01.629Z,10.3
2023-05-07T04:05:53.296Z,11.8
2023-05-07T04:11:45.557Z,10.8
2023-05-07T04:17:38.144Z,12.1
2023-05-07T04:23:30.072Z,11.4
2023-05-07T04:29:22.240Z,11.4
2023-05-07T04:35:14.257Z,11
2023-05-07T04:41:06.126Z,13.3
2023-05-07T04:46:58.447Z,12.6
2023-05-07T04:52:51.212Z,12.5
2023-05-07T04:58:44.366Z,13.9
2023-05-07T05:04:36.089Z,16.3
2023-05-07T05:10:30.642Z,17.2
2023-05-07T05:16:22.280Z,16.1
2023-05-07T05:22:14.281Z,16.7
2023-05-07T05:28:06.196Z,14.7
2023-05-07T05:33:58.138Z,15.7
2023-05-07T05:39:50.120Z,15.8
2023-05-07T05:45:41.793Z,13
2023-05-07T05:51:35.245Z,13.8
2023-05-07T05:57:30.782Z,11.5
2023-05-07T06:03:23.100Z,9
2023-05-07T06:09:17.517Z,8.8
2023-05-07T06:15:08.798Z,9.5
2023-05-07T06:21:00.721Z,7.4
2023-05-07T06:26:53.002Z,4.9
2023-05-07T06:32:47.160Z,5
2023-05-07T06:38:38.559Z,4.6
2023-05-07T06:45:36.538Z,5
2023-05-07T06:51:27.202Z,4.7
2023-05-07T06:57:19.276Z,5.2
2023-05-07T07:03:11.029Z,4.6
2023-05-07T07:09:01.224Z,4.6
2023-05-07T07:14:50.893Z,4.6
2023-05-07T07:20:40.983Z,4.1
2023-05-07T07:26:30.542Z,4
2023-05-07T07:32:21.615Z,4.4
2023-05-07T07:38:16.871Z,5.2
2023-05-07T07:44:08.550Z,3.8
2023-05-07T07:50:02.819Z,3.9
2023-05-07T07:55:59.892Z,3.9
2023-05-07T08:01:52.845Z,3.3
2023-05-07T08:07:45.940Z,3.3
2023-05-07T08:13:38.422Z,3.7
2023-05-07T08:19:33.031Z,3.6
2023-05-07T08:25:24.397Z,3.5
2023-05-07T08:31:17.864Z,3.4
2023-05-07T08:37:11.941Z,3.5
2023-05-07T08:43:05.299Z,3.5
2023-05-07T08:48:59.847Z,3.5
2023-05-07T08:54:52.234Z,3
2023-05-07T09:00:44.379Z,2.6
2023-05-07T09:06:36.591Z,2.8
2023-05-07T09:12:30.168Z,3
2023-05-07T09:18:24.476Z,2.8
2023-05-07T09:24:15.205Z,2.5
2023-05-07T09:30:04.939Z,2.5
2023-05-07T09:35:56.479Z,2.8
2023-05-07T09:41:50.122Z,2.8
2023-05-07T09:47:44.087Z,2.5
2023-05-07T09:53:39.435Z,2.5
2023-05-07T09:59:33.654Z,2.2
2023-05-07T10:05:32.403Z,2.4
2023-05-07T10:11:25.127Z,1.9
2023-05-07T10:17:16.856Z,2.3
2023-05-07T10:23:11.557Z,2.2
2023-05-07T10:29:01.840Z,2
2023-05-07T10:34:53.681Z,1.9
2023-05-07T10:40:51.301Z,2
2023-05-07T10:46:43.265Z,2
2023-05-07T10:52:35.508Z,2
2023-05-07T10:58:38.456Z,1.9
2023-05-07T11:04:29.776Z,1.7
2023-05-07T11:10:21.556Z,1.7
2023-05-07T11:16:14.634Z,1.9
2023-05-07T11:22:09.557Z,1.8
2023-05-07T11:28:00.885Z,2
2023-05-07T11:33:53.082Z,1.9
2023-05-07T11:39:46.490Z,2
2023-05-07T11:45:38.414Z,1.9
2023-05-07T11:51:29.689Z,2
2023-05-07T11:57:24.588Z,1.8
2023-05-07T12:03:14.691Z,1.6
2023-05-07T12:09:05.988Z,1.6
2023-05-07T12:14:57.111Z,1.7
2023-05-07T12:20:49.344Z,1.6
2023-05-07T12:26:42.909Z,1.5
2023-05-07T12:32:35.021Z,1.4
2023-05-07T12:38:27.033Z,1.4
2023-05-07T12:44:18.498Z,1.4
2023-05-07T12:50:10.362Z,1.3
2023-05-07T12:56:02.523Z,1.6
2023-05-07T13:01:54.879Z,1.7
2023-05-07T13:07:47.289Z,1.9
2023-05-07T13:13:39.914Z,1.9
2023-05-07T13:19:34.999Z,1.8
2023-05-07T13:25:24.485Z,1.9
2023-05-07T13:31:16.587Z,1.9
2023-05-07T13:37:11.153Z,2
2023-05-07T13:43:03.240Z,1.9
2023-05-07T13:48:54.686Z,2
2023-05-07T13:54:46.679Z,2
2023-05-07T14:00:38.396Z,1.9
2023-05-07T14:06:30.437Z,1.9
2023-05-07T14:12:21.439Z,2.1
2023-05-07T14:18:15.571Z,3.4
2023-05-07T14:24:07.050Z,3.5
2023-05-07T14:29:58.636Z,3.6
2023-05-07T14:35:50.043Z,3.3
2023-05-07T14:41:41.681Z,3.6
2023-05-07T14:47:34.038Z,4
2023-05-07T14:53:24.839Z,3.4
2023-05-07T14:59:16.405Z,3.7
2023-05-07T15:05:06.547Z,2
2023-05-07T15:10:58.185Z,2.3
2023-05-07T15:16:50.316Z,3.3
2023-05-07T15:22:43.824Z,4.7
2023-05-07T15:28:35.794Z,5.4
2023-05-07T15:34:26.843Z,4.7
2023-05-07T15:40:18.005Z,2.9
2023-05-07T15:46:13.260Z,1.5
2023-05-07T15:52:03.466Z,5.2
2023-05-07T15:57:54.891Z,4.9
2023-05-07T16:03:48.085Z,3.8
2023-05-07T16:09:40.045Z,2.8
2023-05-07T16:15:32.372Z,3
2023-05-07T16:21:24.128Z,4.1
2023-05-07T16:27:15.793Z,4.6
2023-05-07T16:33:09.933Z,4.6
2023-05-07T16:39:02.077Z,4.9
2023-05-07T16:44:53.940Z,5.2
2023-05-07T16:50:47.908Z,5.5
2023-05-07T16:56:43.571Z,6.6
2023-05-07T17:02:37.194Z,6.4
2023-05-07T17:08:31.531Z,6.6
2023-05-07T17:14:25.584Z,6.9
2023-05-07T17:20:17.828Z,6.9
2023-05-07T17:26:09.777Z,7.2
2023-05-07T17:32:01.491Z,7.8
2023-05-07T17:37:54.672Z,8.5
2023-05-07T17:43:45.933Z,7.4
2023-05-07T17:49:38.752Z,8.6
2023-05-07T17:55:34.709Z,10.8
2023-05-07T18:01:26.928Z,8.7
2023-05-07T18:07:20.937Z,8.4
2023-05-07T18:13:12.153Z,8.9
2023-05-07T18:19:04.441Z,9
2023-05-07T18:24:57.744Z,7.9
2023-05-07T18:30:48.561Z,7.8
2023-05-07T18:36:41.530Z,7.6
2023-05-07T18:42:43.948Z,7.4
2023-05-07T18:48:35.369Z,7.5
2023-05-07T18:54:26.309Z,7.8
2023-05-07T19:00:21.462Z,7.7
2023-05-07T19:06:13.650Z,8.3
2023-05-07T19:12:07.652Z,7.2
2023-05-07T19:17:59.389Z,9.5
2023-05-07T19:23:51.183Z,8.1
2023-05-07T19:29:43.046Z,8.1
2023-05-07T19:35:35.574Z,7.5
2023-05-07T19:41:27.946Z,7.4
2023-05-07T19:47:21.359Z,7
2023-05-07T19:53:13.413Z,6.5
2023-05-07T19:59:05.808Z,5.9
2023-05-07T20:04:57.758Z,5.5
2023-05-07T20:10:50.203Z,7
2023-05-07T20:16:41.828Z,13.6
2023-05-07T20:22:33.205Z,7.7
2023-05-07T20:28:24.823Z,6.5
2023-05-07T20:34:16.421Z,6.3
2023-05-07T20:40:08.978Z,6.7
2023-05-07T20:46:01.931Z,8.2
2023-05-07T20:51:53.201Z,8.4
2023-05-07T20:57:45.871Z,9.3
2023-05-07T21:03:35.780Z,9.4
2023-05-07T21:09:27.046Z,7.5
2023-05-07T21:15:19.119Z,8.3
2023-05-07T21:21:08.999Z,8.1
2023-05-07T21:27:03.607Z,7.9
2023-05-07T21:32:56.305Z,8.2
2023-05-07T21:38:48.050Z,7.6
2023-05-07T21:44:39.806Z,7.6
2023-05-07T21:50:31.651Z,7.9
2023-05-07T21:56:22.897Z,8.1
2023-05-07T22:02:15.120Z,8.8
2023-05-07T22:08:06.840Z,9.5
2023-05-07T22:13:58.084Z,9.2
2023-05-07T22:19:49.469Z,8.6
2023-05-07T22:25:41.640Z,8.9
2023-05-07T22:31:33.777Z,8.4
2023-05-07T22:37:30.949Z,7.4
2023-05-07T22:43:22.317Z,7.9
2023-05-07T22:49:13.833Z,7.8
2023-05-07T22:55:05.772Z,9.1
2023-05-07T23:00:56.238Z,9.5
2023-05-07T23:06:48.090Z,10
2023-05-07T23:12:40.765Z,9.8
2023-05-07T23:18:31.685Z,8.6
2023-05-07T23:24:25.360Z,8.3
2023-05-07T23:30:17.769Z,9.1
2023-05-07T23:36:10.624Z,9.7
2023-05-07T23:42:01.408Z,9.7
2023-05-07T23:47:54.081Z,10
2023-05-07T23:53:44.869Z,9.6
2023-05-07T23:59:37.490Z,9.9
